Time;durP1;ratioP1;P1;durP2;ratioP2;P2;SDS_P1;SDS_P2;PMS_P1;PMS_P2;Temp;Humidity;BMP_temperature;BMP_pressure;BME280_temperature;BME280_humidity;BME280_pressure;Samples;Min_cycle;Max_cycle;Signal;HPM_P1;HPM_P2
2022/04/02 00:01:41;;;;;;;11.35;5.30;;;0.60;99.90;;;;;;4976221;28;20045;-84
2022/04/02 00:04:07;;;;;;;7.07;4.20;;;0.60;99.90;;;;;;4991627;28;20456;-84
2022/04/02 00:06:33;;;;;;;8.52;5.30;;;0.60;99.90;;;;;;4995136;28;20109;-84
2022/04/02 00:08:59;;;;;;;5.50;4.55;;;0.60;99.90;;;;;;4994023;28;20065;-83
2022/04/02 00:11:25;;;;;;;5.00;3.58;;;0.60;99.90;;;;;;4992106;28;20022;-84
2022/04/02 00:13:51;;;;;;;10.77;4.80;;;0.60;99.90;;;;;;4995226;28;20033;-84
2022/04/02 00:16:16;;;;;;;6.07;4.32;;;0.60;99.90;;;;;;5002620;28;20053;-83
2022/04/02 00:18:42;;;;;;;14.05;6.20;;;0.60;99.90;;;;;;4996070;28;20025;-83
2022/04/02 00:21:08;;;;;;;6.30;4.18;;;0.60;99.90;;;;;;4991578;28;20030;-84
2022/04/02 00:23:36;;;;;;;12.20;6.30;;;0.60;99.90;;;;;;4991976;28;20029;-83
2022/04/02 00:26:11;;;;;;;9.55;5.53;;;0.60;99.90;;;;;;5001303;28;20051;-83
2022/04/02 00:28:38;;;;;;;10.90;4.30;;;0.60;99.90;;;;;;4975205;28;20353;-83
2022/04/02 00:31:04;;;;;;;13.57;5.20;;;0.60;99.90;;;;;;4993408;28;20030;-84
2022/04/02 00:33:30;;;;;;;11.85;6.38;;;0.60;99.90;;;;;;4996501;28;20092;-83
2022/04/02 00:35:55;;;;;;;8.15;5.03;;;0.60;99.90;;;;;;4979659;28;20525;-83
2022/04/02 00:38:21;;;;;;;7.38;4.13;;;0.60;99.90;;;;;;4994086;28;20095;-83
2022/04/02 00:40:46;;;;;;;9.75;5.75;;;0.60;99.90;;;;;;4980765;28;20037;-83
2022/04/02 00:43:24;;;;;;;9.10;4.63;;;0.60;99.90;;;;;;4996484;28;20495;-84
2022/04/02 00:45:51;;;;;;;10.00;5.13;;;0.60;99.90;;;;;;4994020;28;20509;-83
2022/04/02 00:48:18;;;;;;;6.70;3.85;;;0.60;99.90;;;;;;4976438;28;20026;-83
2022/04/02 00:50:45;;;;;;;5.75;3.25;;;0.60;99.90;;;;;;4975501;28;20133;-83
2022/04/02 00:53:10;;;;;;;9.10;3.85;;;0.60;99.90;;;;;;4975131;28;20143;-83
2022/04/02 00:55:36;;;;;;;10.13;4.78;;;0.60;99.90;;;;;;4997260;28;20037;-83
2022/04/02 00:58:02;;;;;;;6.00;4.05;;;0.60;99.90;;;;;;4991214;28;20540;-83
2022/04/02 01:00:27;;;;;;;12.80;5.20;;;0.60;99.90;;;;;;4991723;28;20113;-83
2022/04/02 01:02:53;;;;;;;4.13;2.78;;;0.60;99.90;;;;;;4995527;28;20034;-84
2022/04/02 01:05:18;;;;;;;7.15;3.78;;;0.60;99.90;;;;;;4993815;28;20164;-83
2022/04/02 01:07:44;;;;;;;16.88;6.07;;;0.60;99.90;;;;;;4976407;28;20132;-83
2022/04/02 01:10:09;;;;;;;9.93;4.93;;;0.60;99.90;;;;;;5004826;28;20735;-83
2022/04/02 01:12:36;;;;;;;5.72;2.97;;;0.50;99.90;;;;;;5009636;28;20128;-83
2022/04/02 01:15:01;;;;;;;11.98;4.00;;;0.60;99.90;;;;;;4994532;28;20560;-83
2022/04/02 01:17:27;;;;;;;9.50;3.95;;;0.60;99.90;;;;;;4974426;28;20053;-83
2022/04/02 01:19:53;;;;;;;7.88;3.05;;;0.60;99.90;;;;;;4993023;28;20055;-83
2022/04/02 01:22:19;;;;;;;6.68;4.13;;;0.60;99.90;;;;;;4992256;28;20030;-83
2022/04/02 01:24:44;;;;;;;7.93;3.90;;;0.60;99.90;;;;;;4976942;28;20547;-83
2022/04/02 01:27:10;;;;;;;7.05;4.13;;;0.60;99.90;;;;;;4992192;28;20025;-83
2022/04/02 01:29:35;;;;;;;5.38;3.47;;;0.60;99.90;;;;;;4980410;28;20026;-83
2022/04/02 01:32:01;;;;;;;7.05;3.97;;;0.60;99.90;;;;;;4978219;28;20433;-83
2022/04/02 01:34:28;;;;;;;8.35;3.40;;;0.60;99.90;;;;;;4976655;28;20473;-84
2022/04/02 01:36:54;;;;;;;4.75;3.10;;;0.60;99.90;;;;;;4978887;28;20046;-84
2022/04/02 01:39:20;;;;;;;5.50;3.50;;;0.60;99.90;;;;;;4984622;28;20037;-83
2022/04/02 01:41:46;;;;;;;10.93;4.68;;;0.60;99.90;;;;;;4987656;28;20104;-83
2022/04/02 01:44:11;;;;;;;3.45;2.55;;;0.60;99.90;;;;;;4993094;28;20104;-83
2022/04/02 01:46:37;;;;;;;4.63;2.90;;;0.60;99.90;;;;;;4992677;28;20037;-84
2022/04/02 01:49:02;;;;;;;5.15;3.03;;;0.60;99.90;;;;;;4991611;28;20403;-83
2022/04/02 01:51:28;;;;;;;8.90;4.15;;;0.60;99.90;;;;;;4978486;28;20034;-84
2022/04/02 01:53:53;;;;;;;6.68;4.68;;;0.60;99.90;;;;;;5000860;28;20029;-84
2022/04/02 01:56:19;;;;;;;14.27;4.10;;;0.60;99.90;;;;;;5010423;28;20034;-84
2022/04/02 01:58:44;;;;;;;11.38;4.68;;;0.60;99.90;;;;;;4976005;28;20033;-84
2022/04/02 02:01:10;;;;;;;5.57;3.30;;;0.50;99.90;;;;;;5012997;28;20152;-84
2022/04/02 02:03:35;;;;;;;5.88;3.25;;;0.50;99.90;;;;;;4996456;28;20299;-83
2022/04/02 02:06:01;;;;;;;9.73;4.00;;;0.50;99.90;;;;;;4993209;28;20030;-83
2022/04/02 02:08:27;;;;;;;9.15;4.22;;;0.60;99.90;;;;;;4997031;28;20061;-83
2022/04/02 02:10:53;;;;;;;4.63;3.22;;;0.60;99.90;;;;;;5011132;28;20129;-84
2022/04/02 02:13:20;;;;;;;5.35;2.88;;;0.50;99.90;;;;;;4997445;28;20416;-84
2022/04/02 02:15:45;;;;;;;6.45;3.85;;;0.50;99.90;;;;;;4988609;28;20027;-84
2022/04/02 02:18:11;;;;;;;6.22;3.67;;;0.50;99.90;;;;;;5012856;28;20038;-83
2022/04/02 02:20:36;;;;;;;5.72;3.38;;;0.60;99.90;;;;;;4995814;28;20037;-83
2022/04/02 02:23:02;;;;;;;5.80;3.25;;;0.50;99.90;;;;;;4999406;28;20116;-83
2022/04/02 02:25:27;;;;;;;7.53;3.78;;;0.50;99.90;;;;;;5011077;28;20121;-84
2022/04/02 02:27:53;;;;;;;4.45;3.03;;;0.50;99.90;;;;;;4995080;28;20057;-84
2022/04/02 02:30:18;;;;;;;7.35;3.78;;;0.50;99.90;;;;;;4986396;28;20034;-84
2022/04/02 02:32:47;;;;;;;4.55;3.40;;;0.50;99.90;;;;;;4974172;28;20046;-83
2022/04/02 02:38:10;;;;;;;6.88;3.75;;;0.50;99.90;;;;;;5010501;28;20045;-84
2022/04/02 02:40:37;;;;;;;5.15;3.60;;;0.50;99.90;;;;;;4977836;28;20037;-84
2022/04/02 02:43:03;;;;;;;4.70;3.00;;;0.50;99.90;;;;;;4995295;28;20377;-84
2022/04/02 02:45:28;;;;;;;6.68;4.03;;;0.50;99.90;;;;;;4995758;28;20037;-84
2022/04/02 02:47:54;;;;;;;5.72;3.30;;;0.60;99.90;;;;;;4994344;28;20416;-84
2022/04/02 02:50:20;;;;;;;4.30;2.38;;;0.60;99.90;;;;;;4994318;28;20026;-84
2022/04/02 02:52:46;;;;;;;4.13;2.88;;;0.50;99.90;;;;;;4993876;28;20465;-85
2022/04/02 02:55:12;;;;;;;5.07;2.97;;;0.50;99.90;;;;;;4987643;28;20109;-85
2022/04/02 02:57:40;;;;;;;5.65;3.20;;;0.50;99.90;;;;;;4979295;28;20030;-85
2022/04/02 03:00:09;;;;;;;5.85;4.18;;;0.50;99.90;;;;;;4977633;28;20036;-85
2022/04/02 03:02:37;;;;;;;4.65;2.92;;;0.50;99.90;;;;;;4988187;28;20149;-86
2022/04/02 03:05:06;;;;;;;6.25;2.95;;;0.50;99.90;;;;;;4977517;28;20034;-84
2022/04/02 03:07:48;;;;;;;7.45;4.35;;;0.50;99.90;;;;;;4982743;28;20025;-85
2022/04/02 03:10:18;;;;;;;4.85;3.05;;;0.50;99.90;;;;;;4995503;28;20041;-85
2022/04/02 03:12:47;;;;;;;7.93;3.85;;;0.50;99.90;;;;;;4978404;28;20036;-85
2022/04/02 03:15:12;;;;;;;4.57;2.80;;;0.50;99.90;;;;;;4993166;28;20045;-85
2022/04/02 03:17:38;;;;;;;8.75;3.33;;;0.50;99.90;;;;;;4994555;28;20073;-85
2022/04/02 03:20:05;;;;;;;5.72;3.17;;;0.50;99.90;;;;;;4980063;28;20504;-84
2022/04/02 03:22:35;;;;;;;5.90;3.30;;;0.50;99.90;;;;;;4993582;28;20084;-84
2022/04/02 03:25:01;;;;;;;5.55;3.22;;;0.50;99.90;;;;;;4978814;28;20381;-85
2022/04/02 03:27:27;;;;;;;7.38;4.82;;;0.50;99.90;;;;;;4973676;28;20112;-85
2022/04/02 03:29:52;;;;;;;5.95;3.92;;;0.50;99.90;;;;;;4993111;28;20618;-85
2022/04/02 03:32:18;;;;;;;3.75;2.97;;;0.50;99.90;;;;;;4978323;28;20069;-85
2022/04/02 03:34:43;;;;;;;5.70;3.17;;;0.50;99.90;;;;;;4990129;28;20033;-85
2022/04/02 03:37:09;;;;;;;7.72;3.15;;;0.50;99.90;;;;;;4991782;28;20536;-84
2022/04/02 03:39:34;;;;;;;4.93;2.80;;;0.50;99.90;;;;;;4997921;28;20042;-83
2022/04/02 03:42:01;;;;;;;6.35;3.17;;;0.50;99.90;;;;;;4981038;28;20033;-84
2022/04/02 03:44:26;;;;;;;4.72;3.55;;;0.50;99.90;;;;;;4992693;28;20037;-84
2022/04/02 03:47:10;;;;;;;9.20;3.65;;;0.50;99.90;;;;;;5005945;28;20026;-84
2022/04/02 03:49:43;;;;;;;4.22;3.45;;;0.50;99.90;;;;;;4994151;28;20485;-84
2022/04/02 03:52:09;;;;;;;7.30;3.15;;;0.50;99.90;;;;;;4993290;28;20108;-84
2022/04/02 03:54:35;;;;;;;7.75;3.40;;;0.50;99.90;;;;;;4996416;28;20116;-84
2022/04/02 03:57:08;;;;;;;3.35;2.60;;;0.50;99.90;;;;;;4995121;28;20038;-84
2022/04/02 03:59:34;;;;;;;6.90;3.97;;;0.50;99.90;;;;;;4973789;28;20038;-84
2022/04/02 04:02:00;;;;;;;6.03;3.03;;;0.50;99.90;;;;;;4992773;28;20038;-84
2022/04/02 04:04:26;;;;;;;5.22;2.70;;;0.50;99.90;;;;;;4991129;28;20026;-84
2022/04/02 04:06:52;;;;;;;10.38;3.65;;;0.50;99.90;;;;;;4996404;28;20037;-84
2022/04/02 04:09:18;;;;;;;3.88;3.28;;;0.40;99.90;;;;;;4993388;28;20041;-84
2022/04/02 04:11:44;;;;;;;7.53;3.30;;;0.50;99.90;;;;;;4986479;28;20117;-83
2022/04/02 04:14:09;;;;;;;8.70;3.30;;;0.50;99.90;;;;;;4994384;28;20156;-83
2022/04/02 04:16:35;;;;;;;6.28;2.88;;;0.40;99.90;;;;;;4994773;28;20069;-83
2022/04/02 04:19:01;;;;;;;9.02;3.25;;;0.40;99.90;;;;;;4995143;28;20495;-84
2022/04/02 04:21:26;;;;;;;4.72;3.08;;;0.50;99.90;;;;;;4971875;28;20057;-83
2022/04/02 04:23:52;;;;;;;6.50;3.17;;;0.50;99.90;;;;;;4996481;28;20037;-83
2022/04/02 04:26:17;;;;;;;6.68;4.40;;;0.40;99.90;;;;;;4993998;28;20040;-83
2022/04/02 04:28:43;;;;;;;5.35;3.78;;;0.40;99.90;;;;;;4977380;28;20396;-83
2022/04/02 04:31:09;;;;;;;4.57;2.75;;;0.50;99.90;;;;;;4992479;28;20397;-83
2022/04/02 04:33:35;;;;;;;8.93;3.50;;;0.40;99.90;;;;;;4989938;28;20040;-83
2022/04/02 04:36:01;;;;;;;4.28;3.08;;;0.50;99.90;;;;;;4990265;28;20400;-83
2022/04/02 04:38:26;;;;;;;5.93;3.83;;;0.40;99.90;;;;;;4992112;28;20038;-83
2022/04/02 04:40:53;;;;;;;4.15;3.15;;;0.50;99.90;;;;;;5006232;28;20034;-83
2022/04/02 04:43:18;;;;;;;6.93;3.65;;;0.50;99.90;;;;;;4990940;28;20037;-83
2022/04/02 04:45:44;;;;;;;5.22;3.10;;;0.50;99.90;;;;;;4975747;28;20067;-82
2022/04/02 04:48:10;;;;;;;5.45;3.63;;;0.40;99.90;;;;;;4993426;28;20026;-82
2022/04/02 04:50:36;;;;;;;3.45;3.03;;;0.50;99.90;;;;;;4989199;28;20077;-82
2022/04/02 04:53:02;;;;;;;6.45;3.90;;;0.40;99.90;;;;;;4991662;28;20029;-83
2022/04/02 04:55:28;;;;;;;5.10;3.60;;;0.50;99.90;;;;;;4972900;28;20026;-82
2022/04/02 04:57:53;;;;;;;7.10;4.53;;;0.50;99.90;;;;;;5009346;28;20041;-82
2022/04/02 05:00:23;;;;;;;7.30;3.08;;;0.40;99.90;;;;;;4989233;28;20104;-83
2022/04/02 05:02:48;;;;;;;4.72;3.55;;;0.40;99.90;;;;;;4969561;28;20034;-82
2022/04/02 05:05:14;;;;;;;4.25;3.38;;;0.40;99.90;;;;;;5006600;28;20080;-82
2022/04/02 05:07:40;;;;;;;6.15;3.05;;;0.40;99.90;;;;;;4976520;28;20034;-83
2022/04/02 05:10:07;;;;;;;5.53;3.30;;;0.40;99.90;;;;;;4990634;28;20034;-82
2022/04/02 05:12:33;;;;;;;8.68;4.10;;;0.40;99.90;;;;;;4975507;28;20442;-82
2022/04/02 05:14:58;;;;;;;5.15;3.92;;;0.40;99.90;;;;;;4992949;28;20044;-82
2022/04/02 05:17:24;;;;;;;6.57;3.40;;;0.40;99.90;;;;;;4991085;28;20125;-83
2022/04/02 05:19:49;;;;;;;6.25;3.45;;;0.40;99.90;;;;;;5010737;28;20033;-82
2022/04/02 05:22:15;;;;;;;4.88;3.55;;;0.40;99.90;;;;;;4977515;28;20037;-82
2022/04/02 05:24:41;;;;;;;5.65;3.70;;;0.40;99.90;;;;;;5004439;28;20040;-83
2022/04/02 05:27:06;;;;;;;9.40;3.35;;;0.40;99.90;;;;;;4996557;28;20029;-82
2022/04/02 05:29:32;;;;;;;8.40;4.50;;;0.40;99.90;;;;;;4973255;28;20137;-82
2022/04/02 05:31:57;;;;;;;4.85;3.25;;;0.40;99.90;;;;;;4992190;28;20076;-82
2022/04/02 05:34:23;;;;;;;6.70;3.83;;;0.40;99.90;;;;;;4991210;28;20076;-82
2022/04/02 05:36:48;;;;;;;6.57;3.72;;;0.50;99.90;;;;;;4993640;28;20531;-82
2022/04/02 05:39:14;;;;;;;5.78;4.00;;;0.40;99.90;;;;;;5005250;28;20053;-82
2022/04/02 05:41:41;;;;;;;6.05;3.58;;;0.40;99.90;;;;;;4990786;28;20036;-82
2022/04/02 05:44:09;;;;;;;5.85;3.55;;;0.40;99.90;;;;;;5010206;28;20026;-83
2022/04/02 05:46:35;;;;;;;6.35;3.50;;;0.40;99.90;;;;;;5004970;28;20045;-83
2022/04/02 05:49:00;;;;;;;9.35;4.15;;;0.40;99.90;;;;;;5007685;28;20089;-83
2022/04/02 05:51:26;;;;;;;6.30;3.13;;;0.40;99.90;;;;;;4990562;28;20022;-83
2022/04/02 05:53:52;;;;;;;7.60;4.72;;;0.40;99.90;;;;;;4978790;28;20028;-83
2022/04/02 05:56:22;;;;;;;7.32;4.50;;;0.40;99.90;;;;;;4974496;28;20034;-82
2022/04/02 05:58:47;;;;;;;6.30;3.33;;;0.40;99.90;;;;;;4973295;28;20026;-82
2022/04/02 06:01:14;;;;;;;3.88;3.13;;;0.40;99.90;;;;;;4991646;28;20045;-82
2022/04/02 06:03:40;;;;;;;6.22;4.68;;;0.40;99.90;;;;;;4991567;28;20062;-83
2022/04/02 06:06:06;;;;;;;6.80;3.95;;;0.40;99.90;;;;;;4978795;28;20057;-83
2022/04/02 06:08:33;;;;;;;7.20;4.00;;;0.40;99.90;;;;;;4979005;28;20516;-82
2022/04/02 06:10:58;;;;;;;6.97;4.28;;;0.50;99.90;;;;;;4974333;28;20429;-83
2022/04/02 06:13:24;;;;;;;8.05;4.95;;;0.50;99.90;;;;;;5008013;28;20056;-82
2022/04/02 06:15:49;;;;;;;10.60;4.63;;;0.50;99.90;;;;;;4992199;28;20048;-83
2022/04/02 06:18:18;;;;;;;6.88;3.97;;;0.50;99.90;;;;;;5010088;28;20494;-82
2022/04/02 06:20:45;;;;;;;7.90;5.20;;;0.50;99.90;;;;;;4977041;28;20046;-82
2022/04/02 06:23:13;;;;;;;6.35;3.85;;;0.50;99.90;;;;;;4991648;28;20041;-82
2022/04/02 06:25:38;;;;;;;8.40;4.45;;;0.50;99.90;;;;;;4973307;28;20042;-83
2022/04/02 06:28:04;;;;;;;5.85;3.78;;;0.50;99.90;;;;;;5003003;28;20240;-82
2022/04/02 06:30:30;;;;;;;9.07;4.60;;;0.50;99.90;;;;;;4988677;28;20029;-82
2022/04/02 06:32:56;;;;;;;4.10;3.05;;;0.50;99.90;;;;;;4996988;28;20507;-82
2022/04/02 06:35:21;;;;;;;6.38;4.25;;;0.50;99.90;;;;;;4989909;28;20092;-82
2022/04/02 06:37:50;;;;;;;5.63;3.90;;;0.50;99.90;;;;;;4993977;28;20033;-82
2022/04/02 06:40:16;;;;;;;9.80;5.20;;;0.50;99.90;;;;;;4978040;28;20432;-83
2022/04/02 06:42:42;;;;;;;7.10;3.83;;;0.50;99.90;;;;;;4982734;28;20045;-83
2022/04/02 06:45:08;;;;;;;5.28;4.07;;;0.50;99.90;;;;;;4980239;28;20099;-82
2022/04/02 06:47:34;;;;;;;6.97;4.57;;;0.50;99.90;;;;;;4992475;28;20374;-83
2022/04/02 06:50:02;;;;;;;9.65;5.00;;;0.50;99.90;;;;;;4979300;28;20103;-82
2022/04/02 06:52:28;;;;;;;6.80;4.78;;;0.50;99.90;;;;;;4995020;28;20026;-82
2022/04/02 06:54:56;;;;;;;7.72;4.50;;;0.50;99.90;;;;;;4995612;28;20053;-82
2022/04/02 06:57:22;;;;;;;5.95;4.20;;;0.50;99.90;;;;;;4996619;28;20034;-82
2022/04/02 06:59:47;;;;;;;6.85;5.32;;;0.60;99.90;;;;;;5001716;28;20527;-82
2022/04/02 07:02:13;;;;;;;8.65;5.15;;;0.50;99.90;;;;;;4980234;28;20033;-82
2022/04/02 07:04:40;;;;;;;8.95;4.53;;;0.60;99.90;;;;;;5010410;28;20034;-82
2022/04/02 07:07:06;;;;;;;7.03;5.38;;;0.60;99.90;;;;;;5010224;28;20026;-82
2022/04/02 07:09:32;;;;;;;6.80;5.55;;;0.60;99.90;;;;;;4987424;28;20034;-82
2022/04/02 07:11:57;;;;;;;7.90;5.93;;;0.60;99.90;;;;;;4982609;28;20049;-82
2022/04/02 07:14:23;;;;;;;8.93;4.88;;;0.60;99.90;;;;;;4997696;28;20092;-81
2022/04/02 07:16:48;;;;;;;10.43;6.40;;;0.60;99.90;;;;;;4995564;28;20030;-82
2022/04/02 07:19:14;;;;;;;12.70;6.68;;;0.60;99.90;;;;;;4994122;28;20076;-82
2022/04/02 07:21:42;;;;;;;9.98;5.53;;;0.60;99.90;;;;;;4989056;28;20089;-83
2022/04/02 07:24:07;;;;;;;7.38;5.03;;;0.60;99.90;;;;;;4994590;28;20393;-83
2022/04/02 07:26:33;;;;;;;9.90;5.07;;;0.60;99.90;;;;;;4977476;28;20029;-83
2022/04/02 07:28:59;;;;;;;13.50;5.45;;;0.60;99.90;;;;;;4996862;28;20022;-83
2022/04/02 07:31:25;;;;;;;6.53;4.57;;;0.60;99.90;;;;;;4969988;28;20064;-83
2022/04/02 07:33:50;;;;;;;10.68;5.75;;;0.60;99.90;;;;;;4979910;28;20026;-83
2022/04/02 07:36:26;;;;;;;9.77;6.75;;;0.70;99.90;;;;;;4988340;28;20060;-83
2022/04/02 07:39:41;;;;;;;8.80;5.07;;;0.70;99.90;;;;;;4994739;28;20255;-82
2022/04/02 07:42:23;;;;;;;10.50;5.28;;;0.70;99.90;;;;;;5001268;28;20041;-83
2022/04/02 07:45:04;;;;;;;8.30;5.25;;;0.70;99.90;;;;;;5007598;28;20450;-83
2022/04/02 07:47:34;;;;;;;6.75;4.20;;;0.80;99.90;;;;;;4979809;28;20124;-84
2022/04/02 07:50:13;;;;;;;9.98;6.43;;;0.70;99.90;;;;;;4981510;28;20036;-84
2022/04/02 07:52:43;;;;;;;10.18;6.00;;;0.70;99.90;;;;;;4974500;28;20026;-84
2022/04/02 07:55:10;;;;;;;13.73;6.78;;;0.70;99.90;;;;;;4981562;28;20379;-84
2022/04/02 07:57:41;;;;;;;10.52;5.57;;;0.70;99.90;;;;;;5005644;28;20029;-84
2022/04/02 08:00:10;;;;;;;13.77;6.20;;;0.80;99.90;;;;;;4997727;28;20385;-84
2022/04/02 08:02:39;;;;;;;17.27;6.20;;;0.80;99.90;;;;;;4978584;28;20048;-84
2022/04/02 08:05:14;;;;;;;9.75;5.03;;;0.80;99.90;;;;;;4958845;28;20030;-84
2022/04/02 08:07:49;;;;;;;8.77;5.88;;;0.80;99.90;;;;;;4969611;28;20120;-85
2022/04/02 08:10:15;;;;;;;13.52;6.57;;;0.80;99.90;;;;;;4975318;28;20284;-85
2022/04/02 08:12:44;;;;;;;12.13;6.40;;;0.90;99.90;;;;;;4968273;28;20582;-85
2022/04/02 08:15:16;;;;;;;9.18;5.28;;;0.90;99.90;;;;;;4964705;28;20033;-85
2022/04/02 08:17:53;;;;;;;12.32;7.30;;;0.80;99.90;;;;;;4966458;28;20049;-86
2022/04/02 08:20:22;;;;;;;12.85;8.63;;;0.80;99.90;;;;;;4950381;28;20115;-85
2022/04/02 08:22:47;;;;;;;8.88;4.72;;;0.90;99.90;;;;;;5004973;28;20033;-86
2022/04/02 08:25:14;;;;;;;15.25;7.70;;;0.80;99.90;;;;;;4989984;28;20455;-85
2022/04/02 08:28:09;;;;;;;8.63;4.70;;;0.80;99.90;;;;;;5010747;28;20634;-85
2022/04/02 08:30:38;;;;;;;8.05;5.63;;;0.80;99.90;;;;;;5009060;28;20033;-86
2022/04/02 08:33:22;;;;;;;10.60;6.43;;;0.90;99.90;;;;;;5007850;28;20054;-85
2022/04/02 08:36:23;;;;;;;11.05;6.57;;;0.90;99.90;;;;;;5006907;28;20026;-86
2022/04/02 08:39:07;;;;;;;14.98;6.45;;;0.90;99.90;;;;;;5011475;28;20030;-86
2022/04/02 08:41:49;;;;;;;10.70;4.97;;;0.90;99.90;;;;;;4987641;28;20080;-85
2022/04/02 08:44:39;;;;;;;15.00;7.80;;;0.90;99.90;;;;;;4989621;28;20503;-86
2022/04/02 08:47:24;;;;;;;12.60;7.68;;;0.80;99.90;;;;;;5004915;28;20022;-86
2022/04/02 08:50:10;;;;;;;13.68;5.97;;;0.80;99.90;;;;;;4992533;28;20480;-86
2022/04/02 08:52:52;;;;;;;13.73;8.40;;;0.90;99.90;;;;;;4991396;28;20366;-86
2022/04/02 08:55:23;;;;;;;14.48;6.72;;;0.80;99.90;;;;;;4994848;28;20021;-86
2022/04/02 08:57:52;;;;;;;17.02;8.65;;;0.90;99.90;;;;;;5008191;28;20030;-86
2022/04/02 09:00:23;;;;;;;14.23;7.90;;;0.80;99.90;;;;;;5005540;28;20029;-85
2022/04/02 09:03:07;;;;;;;12.27;7.13;;;0.80;99.90;;;;;;4992366;28;20530;-85
2022/04/02 09:05:45;;;;;;;13.15;7.97;;;0.90;99.90;;;;;;5003606;28;20030;-86
2022/04/02 09:08:40;;;;;;;13.85;7.07;;;1.00;99.90;;;;;;4984829;28;20054;-86
2022/04/02 09:11:24;;;;;;;10.73;7.22;;;0.90;99.90;;;;;;4999564;28;20484;-86
2022/04/02 09:14:08;;;;;;;14.55;6.72;;;0.90;99.90;;;;;;4982356;28;20457;-85
2022/04/02 09:16:52;;;;;;;18.02;7.38;;;0.90;99.90;;;;;;4999042;28;20030;-85
2022/04/02 09:19:50;;;;;;;11.30;6.50;;;0.90;99.90;;;;;;4997023;28;20059;-85
2022/04/02 09:22:21;;;;;;;9.80;6.50;;;1.00;99.90;;;;;;5009356;28;20041;-85
2022/04/02 09:25:11;;;;;;;11.43;8.02;;;1.00;99.90;;;;;;5022720;28;20038;-85
2022/04/02 09:28:15;;;;;;;15.07;6.90;;;1.00;99.90;;;;;;4993956;28;20392;-86
2022/04/02 09:31:18;;;;;;;13.68;9.20;;;1.00;99.90;;;;;;5004271;28;20419;-85
2022/04/02 09:33:46;;;;;;;9.85;6.25;;;1.10;99.90;;;;;;4990790;28;20392;-85
2022/04/02 09:36:26;;;;;;;10.85;7.63;;;1.00;99.90;;;;;;5009455;28;20029;-84
2022/04/02 09:39:06;;;;;;;21.77;10.32;;;1.00;99.90;;;;;;4972035;28;20389;-84
2022/04/02 09:41:33;;;;;;;13.68;7.60;;;1.00;99.90;;;;;;4987993;28;20133;-85
2022/04/02 09:44:09;;;;;;;12.30;8.38;;;1.00;99.90;;;;;;5007926;28;20528;-85
2022/04/02 09:46:41;;;;;;;14.10;8.02;;;1.00;99.90;;;;;;5005959;28;20045;-85
2022/04/02 09:49:36;;;;;;;12.52;8.68;;;1.10;99.90;;;;;;5000373;28;20044;-85
2022/04/02 09:52:05;;;;;;;10.63;7.72;;;1.10;99.90;;;;;;4992260;28;20590;-84
2022/04/02 09:54:48;;;;;;;15.55;8.20;;;1.10;99.90;;;;;;4966970;28;20039;-84
2022/04/02 09:57:37;;;;;;;12.48;8.10;;;1.10;99.90;;;;;;5000685;28;20560;-84
2022/04/02 10:00:07;;;;;;;11.73;7.70;;;1.10;99.90;;;;;;4975094;28;20038;-84
2022/04/02 10:02:54;;;;;;;11.07;7.38;;;1.10;99.90;;;;;;5000385;28;20033;-84
2022/04/02 10:05:31;;;;;;;17.10;8.20;;;1.20;99.90;;;;;;5007871;28;20041;-84
2022/04/02 10:08:06;;;;;;;11.57;8.20;;;1.10;99.90;;;;;;4977152;28;20541;-84
2022/04/02 10:10:32;;;;;;;10.48;7.47;;;1.10;99.90;;;;;;4992995;28;20038;-85
2022/04/02 10:12:58;;;;;;;10.55;7.50;;;1.10;99.90;;;;;;4991587;28;20041;-85
2022/04/02 10:15:24;;;;;;;11.20;6.53;;;1.20;99.90;;;;;;4994161;28;20477;-85
2022/04/02 10:17:52;;;;;;;9.80;6.80;;;1.50;99.90;;;;;;4996411;28;20066;-86
2022/04/02 10:20:23;;;;;;;9.15;5.60;;;1.30;99.90;;;;;;4993878;28;20555;-85
2022/04/02 10:22:57;;;;;;;10.77;7.05;;;1.30;99.90;;;;;;4990732;28;20092;-85
2022/04/02 10:25:25;;;;;;;8.82;4.32;;;1.30;99.90;;;;;;4998019;28;20508;-85
2022/04/02 10:27:50;;;;;;;10.48;6.60;;;1.60;99.90;;;;;;4997048;28;20520;-85
2022/04/02 10:30:18;;;;;;;13.35;5.60;;;1.40;99.90;;;;;;4992932;28;20037;-85
2022/04/02 10:32:55;;;;;;;10.15;5.68;;;1.20;99.90;;;;;;4982231;28;20073;-85
2022/04/02 10:35:25;;;;;;;10.15;5.38;;;1.30;99.90;;;;;;5011641;28;20029;-85
2022/04/02 10:38:06;;;;;;;11.95;6.28;;;1.20;99.90;;;;;;4987236;28;20034;-85
2022/04/02 10:40:37;;;;;;;11.00;6.57;;;1.20;99.90;;;;;;4980628;28;20030;-85
2022/04/02 10:43:06;;;;;;;10.18;5.93;;;1.20;99.90;;;;;;4996367;28;20029;-84
2022/04/02 10:45:34;;;;;;;9.98;5.45;;;1.20;99.90;;;;;;4978908;28;20042;-84
2022/04/02 10:48:00;;;;;;;11.18;5.63;;;1.20;99.90;;;;;;4982356;28;20057;-84
2022/04/02 10:50:25;;;;;;;9.85;5.80;;;1.20;99.90;;;;;;5011305;28;20072;-84
2022/04/02 10:52:51;;;;;;;8.38;5.88;;;1.20;99.90;;;;;;4977478;28;20532;-84
2022/04/02 10:55:17;;;;;;;11.15;6.07;;;1.40;99.90;;;;;;5016135;28;20396;-85
2022/04/02 10:57:43;;;;;;;6.47;5.78;;;1.30;99.90;;;;;;4981619;28;20030;-84
2022/04/02 11:00:09;;;;;;;7.05;4.90;;;1.30;99.90;;;;;;5011913;28;20481;-84
2022/04/02 11:02:45;;;;;;;6.88;4.75;;;1.30;99.90;;;;;;4997885;28;20080;-84
2022/04/02 11:05:13;;;;;;;5.97;4.70;;;1.40;99.90;;;;;;4970865;28;20076;-84
2022/04/02 11:07:51;;;;;;;8.20;4.78;;;1.30;99.90;;;;;;4975602;28;20113;-83
2022/04/02 11:10:18;;;;;;;4.80;4.30;;;1.30;99.90;;;;;;4991833;28;20038;-84
2022/04/02 11:12:44;;;;;;;6.45;4.53;;;1.30;99.90;;;;;;4992862;28;20030;-84
2022/04/02 11:15:21;;;;;;;6.28;5.18;;;1.40;99.90;;;;;;5009754;28;20695;-83
2022/04/02 11:17:51;;;;;;;10.15;5.88;;;1.40;99.90;;;;;;4972843;28;20045;-83
2022/04/02 11:20:20;;;;;;;9.63;5.97;;;1.20;99.90;;;;;;4991235;28;20393;-83
2022/04/02 11:22:52;;;;;;;13.30;6.90;;;1.30;99.90;;;;;;4988736;28;23090;-82
2022/04/02 11:25:32;;;;;;;10.98;6.55;;;1.30;99.90;;;;;;5010877;28;20058;-81
2022/04/02 11:28:11;;;;;;;10.52;7.72;;;1.30;99.90;;;;;;4285546;28;10000358;-81
2022/04/02 11:31:03;;;;;;;9.85;6.95;;;1.30;99.90;;;;;;4992341;28;20390;-81
2022/04/02 11:33:30;;;;;;;13.52;6.50;;;1.30;99.90;;;;;;4986200;28;20397;-81
2022/04/02 11:35:57;;;;;;;8.90;6.22;;;1.30;99.90;;;;;;4987045;28;20334;-81
2022/04/02 11:38:35;;;;;;;9.65;6.90;;;1.40;99.90;;;;;;4992442;28;20030;-81
2022/04/02 11:41:04;;;;;;;6.72;4.80;;;1.40;99.90;;;;;;4995348;28;20104;-81
2022/04/02 11:43:34;;;;;;;9.50;5.78;;;1.50;99.90;;;;;;5007895;28;20497;-84
2022/04/02 11:46:02;;;;;;;8.90;6.47;;;1.70;99.90;;;;;;4993513;28;20460;-83
2022/04/02 11:48:33;;;;;;;10.38;6.07;;;1.60;99.90;;;;;;4984988;28;20026;-81
2022/04/02 11:51:19;;;;;;;7.80;4.97;;;1.70;99.90;;;;;;4991830;28;20029;-81
2022/04/02 11:53:45;;;;;;;7.82;5.45;;;2.10;99.90;;;;;;4990780;28;20038;-82
2022/04/02 11:56:43;;;;;;;11.82;5.63;;;2.10;99.90;;;;;;4974350;28;20519;-82
2022/04/02 11:59:09;;;;;;;6.20;4.45;;;2.00;99.90;;;;;;5005738;28;20411;-81
2022/04/02 12:01:45;;;;;;;9.27;6.20;;;2.10;99.90;;;;;;4971765;28;20077;-81
2022/04/02 12:04:13;;;;;;;8.65;5.32;;;2.00;99.90;;;;;;4977102;28;20441;-81
2022/04/02 12:06:39;;;;;;;6.50;5.55;;;2.20;99.90;;;;;;4993236;28;20124;-81
2022/04/02 12:09:20;;;;;;;8.32;5.43;;;2.30;99.90;;;;;;4996215;28;20561;-81
2022/04/02 12:11:52;;;;;;;7.07;5.20;;;2.40;99.90;;;;;;4989519;28;20497;-81
2022/04/02 12:14:26;;;;;;;13.80;5.30;;;2.50;99.90;;;;;;4993951;28;20057;-82
2022/04/02 12:17:21;;;;;;;12.98;5.63;;;2.50;99.90;;;;;;4987767;28;20034;-82
2022/04/02 12:19:55;;;;;;;8.40;4.07;;;2.70;99.90;;;;;;4979139;28;20037;-82
2022/04/02 12:22:31;;;;;;;9.23;5.35;;;2.70;99.90;;;;;;4971286;28;20041;-82
2022/04/02 12:25:13;;;;;;;7.07;5.88;;;2.80;99.90;;;;;;4993811;28;20045;-83
2022/04/02 12:27:38;;;;;;;10.77;5.70;;;2.90;99.90;;;;;;4996268;28;20033;-81
2022/04/02 12:30:09;;;;;;;9.65;5.28;;;3.00;99.90;;;;;;4997179;28;20515;-81
2022/04/02 12:32:41;;;;;;;10.65;5.63;;;3.00;99.90;;;;;;4973688;28;20660;-83
2022/04/02 12:35:10;;;;;;;10.55;5.60;;;3.00;99.90;;;;;;4996876;28;20030;-82
2022/04/02 12:37:48;;;;;;;9.13;5.22;;;3.10;99.90;;;;;;4993526;28;20049;-82
2022/04/02 12:40:16;;;;;;;6.82;4.70;;;3.20;99.90;;;;;;4988433;28;20029;-82
2022/04/02 12:42:44;;;;;;;9.48;5.57;;;3.20;99.90;;;;;;4977717;28;20436;-82
2022/04/02 12:45:15;;;;;;;10.93;5.75;;;3.30;99.90;;;;;;4975904;28;20058;-83
2022/04/02 12:47:41;;;;;;;8.70;5.47;;;3.30;99.90;;;;;;4992304;28;20041;-82
2022/04/02 12:50:12;;;;;;;8.50;5.55;;;3.30;99.90;;;;;;4993559;28;20029;-81
2022/04/02 12:52:48;;;;;;;8.70;5.40;;;3.40;99.90;;;;;;4994314;28;20042;-82
2022/04/02 12:55:18;;;;;;;9.07;5.32;;;3.50;99.90;;;;;;4991159;28;20053;-82
2022/04/02 12:57:59;;;;;;;5.78;5.05;;;3.70;99.90;;;;;;4977050;28;20026;-83
2022/04/02 13:00:28;;;;;;;7.38;5.20;;;3.90;99.90;;;;;;5007581;28;20485;-83
2022/04/02 13:02:58;;;;;;;6.13;4.80;;;4.00;99.90;;;;;;5011355;28;20049;-83
2022/04/02 13:05:25;;;;;;;6.60;4.40;;;4.30;99.90;;;;;;4989284;28;20030;-83
2022/04/02 13:08:02;;;;;;;13.50;5.35;;;4.30;99.90;;;;;;4994645;28;20500;-84
2022/04/02 13:10:29;;;;;;;14.07;5.05;;;4.70;99.90;;;;;;4992336;28;20041;-83